Time;durP1;ratioP1;P1;durP2;ratioP2;P2;SDS_P1;SDS_P2;PMS_P1;PMS_P2;Temp;Humidity;BMP_temperature;BMP_pressure;BME280_temperature;BME280_humidity;BME280_pressure;Samples;Min_cycle;Max_cycle;Signal;HPM_P1;HPM_P2
2023/01/01 00:01:41;;;;;;;105.40;43.00;;;6.20;82.70;;;;;;4988324;28;20681;-81
2023/01/01 00:04:11;;;;;;;114.10;45.13;;;6.20;82.90;;;;;;4996429;28;20182;-78
2023/01/01 00:06:37;;;;;;;97.10;43.00;;;6.20;82.90;;;;;;5000786;28;20274;-78
2023/01/01 00:11:47;;;;;;;119.60;46.00;;;6.20;83.00;;;;;;5006816;28;20184;-83
2023/01/01 00:14:13;;;;;;;113.07;43.47;;;6.20;82.70;;;;;;5000169;28;20193;-79
2023/01/01 00:16:38;;;;;;;111.43;43.53;;;6.20;82.90;;;;;;5008732;28;20542;-81
2023/01/01 00:19:04;;;;;;;100.77;44.77;;;6.20;82.80;;;;;;4999705;28;20720;-83
2023/01/01 00:21:30;;;;;;;109.47;45.97;;;6.20;83.00;;;;;;5011673;28;20217;-81
2023/01/01 00:23:55;;;;;;;133.63;44.97;;;6.20;82.90;;;;;;4994765;28;20181;-79
2023/01/01 00:26:21;;;;;;;107.57;45.47;;;6.10;83.20;;;;;;4993513;28;20197;-80
2023/01/01 00:28:46;;;;;;;139.60;50.77;;;6.20;84.30;;;;;;5005312;28;20737;-78
2023/01/01 00:31:18;;;;;;;117.30;50.20;;;6.20;84.30;;;;;;5007937;28;20235;-81
2023/01/01 00:33:45;;;;;;;123.17;49.17;;;6.10;83.90;;;;;;5005512;28;20685;-83
2023/01/01 00:36:13;;;;;;;119.20;50.60;;;6.10;82.70;;;;;;5013717;28;20187;-82
2023/01/01 00:38:40;;;;;;;125.90;49.73;;;6.00;82.60;;;;;;5013753;28;20622;-81
2023/01/01 00:41:06;;;;;;;123.50;51.47;;;6.00;82.70;;;;;;5013651;28;20201;-81
2023/01/01 00:43:31;;;;;;;113.70;48.63;;;6.00;82.70;;;;;;5004872;28;20189;-82
2023/01/01 00:45:57;;;;;;;118.60;48.47;;;6.00;83.00;;;;;;5001400;28;20180;-81
2023/01/01 00:48:23;;;;;;;124.23;45.27;;;6.00;83.10;;;;;;4989284;28;20188;-81
2023/01/01 00:50:50;;;;;;;100.00;43.43;;;6.00;82.90;;;;;;5007765;28;20189;-83
2023/01/01 00:53:15;;;;;;;93.27;42.33;;;6.00;83.30;;;;;;5011152;28;20725;-85
2023/01/01 00:55:42;;;;;;;107.40;45.53;;;6.00;83.10;;;;;;5006638;28;20185;-82
2023/01/01 00:58:09;;;;;;;103.60;44.03;;;6.00;83.70;;;;;;4991504;28;20470;-81
2023/01/01 01:00:35;;;;;;;117.23;46.10;;;6.00;83.80;;;;;;5007744;28;20212;-80
2023/01/01 01:03:01;;;;;;;102.23;44.70;;;5.90;83.90;;;;;;5006912;28;20997;-80
2023/01/01 01:05:26;;;;;;;115.80;46.97;;;5.90;83.70;;;;;;4990586;28;20181;-82
2023/01/01 01:07:53;;;;;;;111.00;45.23;;;5.90;84.30;;;;;;5002038;28;20263;-83
2023/01/01 01:10:21;;;;;;;129.50;48.70;;;5.90;84.80;;;;;;5010962;28;20203;-79
2023/01/01 01:12:47;;;;;;;116.07;47.40;;;5.90;84.50;;;;;;5007617;28;20873;-79
2023/01/01 01:15:14;;;;;;;99.37;42.90;;;5.90;84.20;;;;;;5017262;28;20176;-79
2023/01/01 01:17:40;;;;;;;105.23;43.83;;;5.80;84.40;;;;;;4992847;28;20267;-79
2023/01/01 01:20:06;;;;;;;107.97;42.93;;;5.80;84.40;;;;;;5004317;28;21174;-79
2023/01/01 01:22:33;;;;;;;94.17;41.80;;;5.80;84.30;;;;;;5001930;28;20189;-79
2023/01/01 01:25:00;;;;;;;93.73;41.43;;;5.80;84.30;;;;;;5004974;28;20191;-79
2023/01/01 01:27:26;;;;;;;106.13;45.87;;;5.80;84.40;;;;;;5002524;28;20212;-79
2023/01/01 01:29:52;;;;;;;134.23;54.47;;;5.80;84.50;;;;;;4999466;28;20177;-79
2023/01/01 01:32:18;;;;;;;146.33;53.20;;;5.80;84.60;;;;;;5008791;28;20185;-79
2023/01/01 01:34:44;;;;;;;151.00;58.00;;;5.80;84.60;;;;;;5005827;28;20188;-79
2023/01/01 01:37:10;;;;;;;156.10;60.83;;;5.80;84.70;;;;;;5005574;28;20188;-79
2023/01/01 01:39:36;;;;;;;170.80;60.90;;;5.80;85.00;;;;;;5007785;28;20185;-79
2023/01/01 01:42:02;;;;;;;141.33;59.37;;;5.80;84.60;;;;;;5004767;28;20227;-79
2023/01/01 01:44:49;;;;;;;133.63;54.53;;;5.80;84.80;;;;;;5005710;28;20185;-79
2023/01/01 01:47:14;;;;;;;127.60;48.67;;;5.80;85.50;;;;;;5006835;28;20187;-80
2023/01/01 01:49:42;;;;;;;106.70;45.03;;;5.80;86.00;;;;;;5013875;28;20225;-79
2023/01/01 01:52:08;;;;;;;94.33;39.93;;;5.80;86.60;;;;;;5004894;28;20184;-80
2023/01/01 01:54:34;;;;;;;98.73;40.23;;;5.70;86.20;;;;;;5016385;28;20197;-79
2023/01/01 01:57:03;;;;;;;94.10;40.23;;;5.70;86.00;;;;;;5007654;28;20187;-80
2023/01/01 01:59:50;;;;;;;98.47;42.43;;;5.60;84.90;;;;;;5006061;28;20197;-79
2023/01/01 02:02:27;;;;;;;88.60;39.10;;;5.60;85.30;;;;;;4996028;28;20217;-80
2023/01/01 02:04:54;;;;;;;97.93;41.70;;;5.60;84.90;;;;;;5005646;28;20589;-80
2023/01/01 02:07:23;;;;;;;115.33;42.77;;;5.50;84.80;;;;;;5006195;28;20542;-80
2023/01/01 02:09:49;;;;;;;112.43;44.53;;;5.50;84.70;;;;;;5002071;28;20189;-80
2023/01/01 02:12:15;;;;;;;118.53;45.63;;;5.50;84.60;;;;;;5004309;28;20177;-80
2023/01/01 02:14:41;;;;;;;113.97;46.90;;;5.50;84.50;;;;;;5005219;28;20270;-80
2023/01/01 02:17:13;;;;;;;131.53;52.80;;;5.50;85.10;;;;;;5002965;28;20181;-80
2023/01/01 02:19:57;;;;;;;109.20;50.33;;;5.50;85.00;;;;;;5004360;28;20231;-80
2023/01/01 02:22:35;;;;;;;117.30;49.57;;;5.40;84.60;;;;;;5001211;28;20276;-79
2023/01/01 02:25:26;;;;;;;134.30;48.00;;;5.50;85.50;;;;;;5004429;28;20210;-79
2023/01/01 02:28:29;;;;;;;119.60;46.73;;;5.40;86.10;;;;;;5004724;28;20692;-80
2023/01/01 02:30:56;;;;;;;115.43;43.87;;;5.40;86.50;;;;;;4998545;28;20208;-80
2023/01/01 02:33:24;;;;;;;118.53;46.37;;;5.40;86.60;;;;;;5004602;28;20719;-79
2023/01/01 02:35:55;;;;;;;123.20;48.73;;;5.40;86.80;;;;;;5003421;28;20268;-80
2023/01/01 02:38:40;;;;;;;115.97;46.97;;;5.30;86.40;;;;;;5004216;28;20251;-79
2023/01/01 02:41:12;;;;;;;115.13;45.43;;;5.30;86.30;;;;;;5001950;28;20213;-79
2023/01/01 02:43:39;;;;;;;111.57;47.23;;;5.30;86.60;;;;;;4998868;28;20258;-79
2023/01/01 02:46:07;;;;;;;117.50;48.40;;;5.30;86.60;;;;;;5004164;28;20197;-79
2023/01/01 02:48:48;;;;;;;107.10;45.30;;;5.20;85.60;;;;;;5003571;28;20189;-79
2023/01/01 02:51:26;;;;;;;102.17;44.83;;;5.20;85.30;;;;;;4998878;28;20184;-79
2023/01/01 02:54:17;;;;;;;104.53;42.70;;;5.20;85.10;;;;;;4986610;28;20556;-79
2023/01/01 02:56:49;;;;;;;97.57;41.07;;;5.20;85.30;;;;;;5003211;28;20272;-79
2023/01/01 03:02:16;;;;;;;100.23;41.87;;;5.20;85.30;;;;;;5004725;28;20244;-79
2023/01/01 03:05:14;;;;;;;90.43;39.27;;;5.20;85.20;;;;;;5008993;28;20211;-79
2023/01/01 03:08:09;;;;;;;99.53;40.90;;;5.20;85.60;;;;;;4981155;28;20185;-79
2023/01/01 03:10:46;;;;;;;113.23;43.07;;;5.20;85.30;;;;;;5007585;28;21142;-79
2023/01/01 03:13:12;;;;;;;102.83;42.70;;;5.20;85.30;;;;;;5005892;28;20217;-79
2023/01/01 03:16:13;;;;;;;122.67;45.60;;;5.20;85.40;;;;;;5002489;28;20640;-79
2023/01/01 03:19:11;;;;;;;111.77;45.90;;;5.20;85.50;;;;;;5008674;28;20627;-80
2023/01/01 03:21:50;;;;;;;98.03;41.07;;;5.10;85.20;;;;;;4928674;29;20250;-80
2023/01/01 03:24:43;;;;;;;101.23;43.10;;;5.10;85.20;;;;;;4928357;29;20261;-79
2023/01/01 03:27:12;;;;;;;111.93;45.37;;;5.10;85.00;;;;;;4929338;29;20211;-79
2023/01/01 03:29:42;;;;;;;97.23;45.83;;;5.10;85.20;;;;;;4932655;29;20821;-79
2023/01/01 03:32:14;;;;;;;116.97;44.47;;;5.10;85.00;;;;;;4935798;29;20218;-79
2023/01/01 03:34:47;;;;;;;104.47;47.83;;;5.10;85.00;;;;;;4912630;29;20677;-79
2023/01/01 03:37:21;;;;;;;113.27;45.43;;;5.00;85.20;;;;;;4929232;29;20187;-79
2023/01/01 03:39:51;;;;;;;112.03;45.73;;;5.00;84.80;;;;;;4929249;29;20207;-79
2023/01/01 03:42:30;;;;;;;108.00;44.83;;;5.00;85.70;;;;;;4912693;29;21645;-79
2023/01/01 03:45:30;;;;;;;119.07;48.13;;;5.00;86.20;;;;;;4930153;29;20203;-79
2023/01/01 03:47:56;;;;;;;124.17;45.83;;;5.00;85.70;;;;;;4927844;29;20254;-80
2023/01/01 03:50:34;;;;;;;131.63;48.03;;;4.90;86.20;;;;;;4928050;29;20195;-79
2023/01/01 03:53:27;;;;;;;123.80;47.63;;;4.90;85.80;;;;;;4928661;29;20704;-80
2023/01/01 03:56:07;;;;;;;122.60;47.67;;;4.80;86.30;;;;;;4929749;29;20190;-79
2023/01/01 03:58:42;;;;;;;121.80;45.77;;;4.80;85.80;;;;;;4948602;28;20193;-79
2023/01/01 04:01:21;;;;;;;118.23;46.47;;;4.70;85.70;;;;;;5010340;28;20289;-80
2023/01/01 04:03:47;;;;;;;113.20;44.57;;;4.70;87.50;;;;;;4999440;28;20699;-79
2023/01/01 04:06:13;;;;;;;96.43;40.27;;;4.70;87.40;;;;;;5013799;28;20184;-79
2023/01/01 04:08:39;;;;;;;113.63;40.43;;;4.70;87.50;;;;;;5006430;28;20189;-79
2023/01/01 04:13:56;;;;;;;81.03;38.83;;;4.60;86.60;;;;;;4999746;28;20256;-80
2023/01/01 04:16:22;;;;;;;90.70;38.30;;;4.60;86.50;;;;;;5005517;28;20178;-80
2023/01/01 04:18:48;;;;;;;83.70;39.50;;;4.60;86.30;;;;;;5003955;28;20668;-79
2023/01/01 04:21:13;;;;;;;94.13;40.60;;;4.60;86.60;;;;;;5006708;28;20213;-80
2023/01/01 04:23:39;;;;;;;99.00;39.77;;;4.60;86.20;;;;;;4999317;28;20220;-80
2023/01/01 04:26:05;;;;;;;86.37;39.33;;;4.60;86.30;;;;;;5003290;28;20181;-80
2023/01/01 04:28:30;;;;;;;83.53;37.47;;;4.60;86.10;;;;;;4999534;28;20715;-80
2023/01/01 04:31:00;;;;;;;94.27;36.70;;;4.60;86.00;;;;;;5006151;28;20847;-80
2023/01/01 04:33:25;;;;;;;89.93;36.53;;;4.60;86.80;;;;;;5006438;28;20181;-79
2023/01/01 04:35:51;;;;;;;88.23;37.00;;;4.60;86.60;;;;;;5007931;28;21018;-80
2023/01/01 04:38:16;;;;;;;85.03;39.63;;;4.60;86.50;;;;;;5009247;28;20705;-80
2023/01/01 04:40:42;;;;;;;84.20;38.23;;;4.60;85.90;;;;;;5011346;28;20211;-80
2023/01/01 04:43:08;;;;;;;94.27;37.73;;;4.50;86.00;;;;;;5000990;28;20177;-79
2023/01/01 04:45:33;;;;;;;95.93;40.27;;;4.60;86.40;;;;;;5009369;28;20213;-80
2023/01/01 04:48:03;;;;;;;87.70;38.80;;;4.50;86.10;;;;;;5014865;28;20275;-80
2023/01/01 04:50:29;;;;;;;79.97;38.17;;;4.60;86.20;;;;;;5007713;28;20181;-80
2023/01/01 04:52:57;;;;;;;87.53;36.77;;;4.60;86.40;;;;;;5009418;28;20185;-79
2023/01/01 04:55:22;;;;;;;92.30;38.83;;;4.60;86.30;;;;;;5008891;28;20284;-80
2023/01/01 04:57:48;;;;;;;94.23;39.70;;;4.60;86.50;;;;;;4994479;28;20663;-79
2023/01/01 05:00:14;;;;;;;84.77;39.60;;;4.60;86.40;;;;;;5009950;28;20236;-79
2023/01/01 05:02:39;;;;;;;95.13;41.30;;;4.60;86.30;;;;;;5014233;28;20193;-81
2023/01/01 05:05:05;;;;;;;92.43;36.00;;;4.60;86.50;;;;;;5005192;28;20239;-78
2023/01/01 05:07:32;;;;;;;91.27;38.53;;;4.60;86.50;;;;;;5007010;28;20188;-78
2023/01/01 05:09:57;;;;;;;85.13;37.03;;;4.50;86.20;;;;;;5009689;28;20649;-79
2023/01/01 05:12:23;;;;;;;93.10;38.13;;;4.50;86.20;;;;;;4999518;28;20269;-81
2023/01/01 05:14:49;;;;;;;76.17;35.23;;;4.50;86.20;;;;;;5004524;28;20178;-78
2023/01/01 05:17:14;;;;;;;71.83;34.83;;;4.50;86.10;;;;;;5010770;28;20208;-78
2023/01/01 05:19:40;;;;;;;80.27;34.13;;;4.50;86.00;;;;;;5006977;28;20257;-78
2023/01/01 05:22:06;;;;;;;83.23;34.00;;;4.50;86.10;;;;;;4999593;28;20234;-79
2023/01/01 05:24:35;;;;;;;79.03;32.90;;;4.50;86.40;;;;;;5009291;28;20192;-79
2023/01/01 05:27:00;;;;;;;88.60;36.20;;;4.50;86.30;;;;;;5009490;28;20173;-79
2023/01/01 05:29:26;;;;;;;71.83;32.53;;;4.50;86.30;;;;;;5010390;28;20197;-79
2023/01/01 05:31:52;;;;;;;76.77;31.27;;;4.40;86.20;;;;;;5010842;28;20858;-79
2023/01/01 05:34:17;;;;;;;74.20;32.63;;;4.40;86.30;;;;;;5011074;28;20193;-78
2023/01/01 05:36:43;;;;;;;64.00;30.53;;;4.40;86.40;;;;;;5017182;28;20692;-78
2023/01/01 05:39:11;;;;;;;66.50;31.50;;;4.40;86.40;;;;;;5007483;28;20673;-79
2023/01/01 05:41:37;;;;;;;55.43;27.90;;;4.40;86.20;;;;;;4992330;28;20779;-79
2023/01/01 05:44:07;;;;;;;65.87;28.60;;;4.40;86.20;;;;;;5008934;28;20293;-79
2023/01/01 05:46:33;;;;;;;52.40;28.80;;;4.30;86.40;;;;;;4986987;28;20190;-78
2023/01/01 05:48:59;;;;;;;66.83;31.13;;;4.30;86.40;;;;;;4994148;28;20177;-78
2023/01/01 05:51:28;;;;;;;68.87;31.67;;;4.30;86.40;;;;;;5009479;28;20623;-79
2023/01/01 05:53:55;;;;;;;76.23;33.87;;;4.30;86.30;;;;;;5009302;28;20721;-79
2023/01/01 05:56:21;;;;;;;72.20;34.27;;;4.30;85.80;;;;;;4989495;28;20673;-79
2023/01/01 05:58:47;;;;;;;81.40;34.00;;;4.20;86.50;;;;;;5006535;28;20169;-79
2023/01/01 06:01:17;;;;;;;82.53;33.30;;;4.20;86.70;;;;;;5006016;28;20228;-79
2023/01/01 06:03:43;;;;;;;82.90;34.10;;;4.20;86.50;;;;;;5006697;28;20199;-80
2023/01/01 06:06:13;;;;;;;88.03;35.03;;;4.20;86.50;;;;;;4995660;28;21077;-79
2023/01/01 06:08:39;;;;;;;75.13;36.07;;;4.20;87.20;;;;;;5012920;28;20189;-80
2023/01/01 06:11:07;;;;;;;83.13;36.50;;;4.20;86.80;;;;;;5008155;28;20185;-79
2023/01/01 06:13:33;;;;;;;72.60;34.23;;;4.20;87.10;;;;;;5006112;28;20842;-80
2023/01/01 06:16:00;;;;;;;76.83;31.97;;;4.20;87.00;;;;;;5005416;28;20267;-79
2023/01/01 06:18:30;;;;;;;69.70;32.83;;;4.10;87.00;;;;;;4995243;28;20581;-79
2023/01/01 06:21:09;;;;;;;69.83;31.33;;;4.20;87.40;;;;;;5008615;28;20267;-79
2023/01/01 06:23:35;;;;;;;63.90;28.73;;;4.20;87.70;;;;;;5015732;28;20583;-79
2023/01/01 06:26:21;;;;;;;73.40;32.40;;;4.20;88.00;;;;;;5009188;28;20181;-78
2023/01/01 06:28:47;;;;;;;61.13;30.53;;;4.20;87.60;;;;;;5018693;28;20268;-79
2023/01/01 06:31:15;;;;;;;62.97;29.37;;;4.20;88.00;;;;;;5009097;28;20181;-79
2023/01/01 06:33:41;;;;;;;72.97;32.03;;;4.20;88.20;;;;;;5006715;28;20211;-79
2023/01/01 06:36:10;;;;;;;57.30;29.60;;;4.30;88.60;;;;;;5007873;28;20566;-80
2023/01/01 06:38:38;;;;;;;72.43;32.87;;;4.40;88.70;;;;;;5005585;28;20181;-79
2023/01/01 06:41:06;;;;;;;60.07;28.67;;;4.50;89.20;;;;;;5008701;28;20725;-79
2023/01/01 06:43:34;;;;;;;69.43;28.70;;;4.60;89.60;;;;;;5005342;28;20209;-79
2023/01/01 06:46:12;;;;;;;59.73;29.57;;;4.70;89.60;;;;;;5000888;28;20980;-78
2023/01/01 06:48:38;;;;;;;60.20;29.20;;;4.90;89.70;;;;;;5000591;28;20177;-79
2023/01/01 06:51:09;;;;;;;66.10;28.97;;;5.10;89.90;;;;;;5006837;28;20724;-79
2023/01/01 06:53:36;;;;;;;57.47;29.23;;;5.20;90.10;;;;;;5011247;28;20288;-79
2023/01/01 06:56:02;;;;;;;69.77;30.37;;;5.40;90.10;;;;;;5020166;28;20874;-79
2023/01/01 06:58:28;;;;;;;74.77;32.17;;;5.60;90.00;;;;;;5032253;28;20176;-79
2023/01/01 07:01:01;;;;;;;59.47;30.80;;;5.80;89.80;;;;;;5024763;28;20267;-78
2023/01/01 07:03:27;;;;;;;61.23;29.93;;;5.90;89.50;;;;;;5012538;28;20184;-79
2023/01/01 07:05:52;;;;;;;73.43;33.73;;;6.10;89.60;;;;;;5010932;28;20189;-78
2023/01/01 07:08:18;;;;;;;65.67;32.57;;;6.30;89.20;;;;;;5007136;28;20308;-79
2023/01/01 07:10:43;;;;;;;72.13;35.17;;;6.50;88.80;;;;;;5010374;28;20193;-78
2023/01/01 07:13:09;;;;;;;95.17;37.37;;;6.70;89.00;;;;;;5006065;28;20745;-78
2023/01/01 07:15:35;;;;;;;81.97;35.43;;;7.00;88.90;;;;;;5005987;28;20189;-78
2023/01/01 07:18:00;;;;;;;81.43;37.87;;;7.30;88.80;;;;;;5006712;28;20320;-79
2023/01/01 07:20:26;;;;;;;74.67;36.90;;;7.60;88.20;;;;;;5016695;28;20209;-78
2023/01/01 07:22:52;;;;;;;90.73;37.63;;;7.90;87.70;;;;;;5001757;28;20594;-80
2023/01/01 07:25:17;;;;;;;80.97;38.80;;;8.10;86.60;;;;;;5017831;28;20632;-80
2023/01/01 07:27:43;;;;;;;91.77;39.97;;;8.40;85.70;;;;;;5005881;28;20252;-79
2023/01/01 07:30:09;;;;;;;105.73;42.17;;;8.60;85.20;;;;;;5005018;28;20173;-80
2023/01/01 07:32:35;;;;;;;102.60;41.93;;;8.80;84.50;;;;;;5004833;28;20192;-80
2023/01/01 07:35:00;;;;;;;88.60;40.27;;;9.10;85.00;;;;;;5006030;28;20617;-78
2023/01/01 07:37:26;;;;;;;110.73;44.30;;;9.40;84.90;;;;;;5007975;28;20184;-78
2023/01/01 07:39:52;;;;;;;98.10;42.63;;;9.80;84.00;;;;;;5015045;28;20676;-78
2023/01/01 07:42:18;;;;;;;95.27;43.63;;;10.10;83.80;;;;;;5007095;28;20248;-78
2023/01/01 07:44:43;;;;;;;94.88;43.65;;;10.50;83.30;;;;;;5004622;28;20267;-80
2023/01/01 07:47:22;;;;;;;106.80;46.78;;;10.90;82.20;;;;;;5001444;28;20174;-78
2023/01/01 07:49:49;;;;;;;101.10;45.45;;;11.20;80.50;;;;;;5002854;28;20180;-78
2023/01/01 07:52:14;;;;;;;109.32;48.80;;;11.60;80.50;;;;;;4989787;28;20674;-79
2023/01/01 07:54:40;;;;;;;110.20;49.42;;;11.90;79.70;;;;;;5007740;28;20188;-78
2023/01/01 07:57:06;;;;;;;102.50;46.55;;;12.20;78.80;;;;;;5007048;28;20189;-79
2023/01/01 07:59:31;;;;;;;101.70;47.75;;;12.50;77.70;;;;;;5008192;28;20177;-79
2023/01/01 08:01:57;;;;;;;106.00;48.78;;;12.80;76.90;;;;;;5006369;28;20225;-79
2023/01/01 08:04:25;;;;;;;93.25;46.83;;;13.10;77.20;;;;;;5007998;28;20181;-76
2023/01/01 08:06:54;;;;;;;98.75;46.67;;;13.40;76.60;;;;;;5005826;28;20284;-72
2023/01/01 08:09:20;;;;;;;95.10;46.05;;;13.70;76.20;;;;;;5005948;28;20185;-73
2023/01/01 08:11:45;;;;;;;108.05;49.03;;;13.90;72.30;;;;;;5006163;28;20196;-73
2023/01/01 08:14:12;;;;;;;105.50;49.90;;;14.00;71.70;;;;;;5006455;28;20278;-77
2023/01/01 08:16:38;;;;;;;112.05;50.17;;;14.10;71.40;;;;;;5004753;28;20663;-77
2023/01/01 08:19:04;;;;;;;110.90;50.00;;;14.30;71.00;;;;;;5007056;28;20243;-77
2023/01/01 08:21:30;;;;;;;98.53;48.60;;;14.40;70.40;;;;;;5005952;28;20209;-77
2023/01/01 08:23:56;;;;;;;89.32;44.63;;;14.40;68.70;;;;;;5006861;28;20199;-77
2023/01/01 08:26:30;;;;;;;85.05;45.28;;;14.50;70.60;;;;;;5001279;28;20810;-77
2023/01/01 08:28:56;;;;;;;91.78;45.55;;;14.90;70.20;;;;;;5004478;28;20263;-78
2023/01/01 08:31:23;;;;;;;98.20;46.92;;;15.00;68.70;;;;;;5006274;28;20267;-79
2023/01/01 08:33:48;;;;;;;102.65;48.40;;;15.20;68.40;;;;;;5004175;28;20259;-77
2023/01/01 08:36:15;;;;;;;97.65;47.20;;;15.50;68.40;;;;;;5005097;28;20181;-79
2023/01/01 08:38:41;;;;;;;100.05;48.92;;;15.70;67.50;;;;;;5006039;28;20181;-78
2023/01/01 08:41:08;;;;;;;96.38;48.50;;;16.10;67.70;;;;;;5004747;28;21070;-78
2023/01/01 08:43:33;;;;;;;89.03;47.63;;;16.40;66.00;;;;;;5005833;28;20701;-76
2023/01/01 08:45:59;;;;;;;88.55;47.15;;;16.60;66.50;;;;;;5003951;28;20212;-78
2023/01/01 08:48:25;;;;;;;83.63;46.25;;;16.80;65.60;;;;;;5006728;28;20181;-77
2023/01/01 08:51:01;;;;;;;91.10;46.25;;;17.10;65.60;;;;;;4995899;28;20708;-76
2023/01/01 08:53:28;;;;;;;82.53;43.95;;;17.30;65.50;;;;;;5003933;28;20570;-78
2023/01/01 08:55:59;;;;;;;90.78;47.05;;;17.50;63.20;;;;;;5004113;28;20685;-77
2023/01/01 08:58:26;;;;;;;83.30;44.63;;;17.60;63.90;;;;;;5006627;28;20689;-77
2023/01/01 09:00:53;;;;;;;89.88;45.85;;;17.80;64.00;;;;;;5005024;28;20217;-78
2023/01/01 09:03:19;;;;;;;84.97;45.90;;;18.10;63.90;;;;;;5005255;28;20185;-77
2023/01/01 09:05:44;;;;;;;84.80;45.08;;;18.30;63.50;;;;;;5003606;28;20607;-77
2023/01/01 09:08:14;;;;;;;87.40;45.40;;;18.60;63.00;;;;;;4996833;28;20197;-77
2023/01/01 09:10:42;;;;;;;84.75;46.85;;;18.90;62.90;;;;;;4999467;28;20189;-78
2023/01/01 09:13:08;;;;;;;92.53;47.38;;;19.20;62.10;;;;;;4988222;28;21016;-77
2023/01/01 09:15:34;;;;;;;85.47;47.53;;;19.50;61.20;;;;;;5008041;28;20191;-82
2023/01/01 09:18:00;;;;;;;91.28;47.35;;;19.80;61.10;;;;;;5008256;28;20181;-80
2023/01/01 09:20:25;;;;;;;84.75;46.92;;;20.20;60.20;;;;;;5014758;28;20227;-78
2023/01/01 09:22:51;;;;;;;87.10;47.85;;;20.50;60.10;;;;;;5015578;28;20212;-77
2023/01/01 09:25:16;;;;;;;82.05;47.42;;;20.90;59.50;;;;;;5022207;28;20197;-79
2023/01/01 09:27:42;;;;;;;89.55;48.58;;;21.20;59.20;;;;;;5023928;28;20181;-79
2023/01/01 09:30:08;;;;;;;93.47;49.00;;;21.50;58.40;;;;;;5020517;28;20677;-80
2023/01/01 09:32:34;;;;;;;85.07;47.90;;;21.70;57.90;;;;;;5007462;28;20276;-79
2023/01/01 09:35:00;;;;;;;92.82;48.30;;;21.90;56.80;;;;;;4988243;28;20177;-79
2023/01/01 09:37:26;;;;;;;86.93;46.78;;;21.90;55.10;;;;;;5005377;28;20216;-82
2023/01/01 09:39:51;;;;;;;92.72;47.88;;;21.80;55.50;;;;;;5006490;28;20180;-80
2023/01/01 09:42:25;;;;;;;90.03;46.70;;;21.60;54.70;;;;;;5005506;28;20225;-81
2023/01/01 09:45:19;;;;;;;86.20;47.38;;;21.50;57.30;;;;;;5004738;28;20264;-82
2023/01/01 09:47:50;;;;;;;82.85;46.25;;;21.50;55.70;;;;;;4991435;28;20626;-82
2023/01/01 09:50:38;;;;;;;84.35;45.03;;;21.40;57.10;;;;;;4986216;28;20188;-79
2023/01/01 09:53:17;;;;;;;92.10;45.78;;;21.20;55.10;;;;;;4943794;28;20593;-79
2023/01/01 09:55:52;;;;;;;84.18;44.95;;;21.20;57.10;;;;;;4945863;28;20211;-79
2023/01/01 09:58:47;;;;;;;79.57;44.45;;;21.50;56.30;;;;;;4944276;28;20273;-79
2023/01/01 10:01:41;;;;;;;76.13;44.67;;;21.70;56.80;;;;;;4940331;28;20747;-78
2023/01/01 10:04:18;;;;;;;77.75;43.35;;;22.00;54.70;;;;;;4942816;28;20720;-79
2023/01/01 10:07:06;;;;;;;80.47;45.63;;;22.10;55.80;;;;;;4945016;28;20206;-79
2023/01/01 10:09:34;;;;;;;73.18;44.45;;;22.40;55.30;;;;;;4941881;28;20206;-78
2023/01/01 10:12:28;;;;;;;79.38;44.40;;;22.60;55.50;;;;;;4941093;28;20340;-78
2023/01/01 10:15:02;;;;;;;79.93;45.50;;;22.80;55.50;;;;;;4943868;28;20187;-80
2023/01/01 10:17:44;;;;;;;74.40;42.80;;;23.00;55.00;;;;;;4944225;28;20190;-81
2023/01/01 10:20:41;;;;;;;69.88;40.60;;;23.10;54.80;;;;;;4943122;28;20187;-80
2023/01/01 10:23:20;;;;;;;71.13;42.33;;;23.30;53.60;;;;;;4940701;28;20279;-81
2023/01/01 10:25:46;;;;;;;78.05;41.83;;;23.40;51.20;;;;;;4942383;29;20189;-80
2023/01/01 10:28:32;;;;;;;69.22;40.35;;;23.30;53.00;;;;;;4945311;29;20247;-80
2023/01/01 10:31:19;;;;;;;72.07;40.95;;;22.90;52.50;;;;;;4993106;28;20671;-81
2023/01/01 10:33:46;;;;;;;67.25;40.38;;;22.70;53.30;;;;;;5005113;28;20188;-81
2023/01/01 10:36:16;;;;;;;69.03;41.05;;;22.60;53.00;;;;;;4999747;28;20206;-80
2023/01/01 10:38:42;;;;;;;71.63;40.78;;;22.50;53.30;;;;;;4997556;28;20571;-81
2023/01/01 10:41:10;;;;;;;57.17;36.15;;;22.40;52.20;;;;;;4999283;28;20216;-80
2023/01/01 10:43:36;;;;;;;54.08;35.15;;;22.20;53.50;;;;;;5006680;28;20192;-81
2023/01/01 10:46:03;;;;;;;57.35;34.85;;;22.10;53.10;;;;;;4999586;28;20186;-80
2023/01/01 10:48:31;;;;;;;52.17;33.42;;;21.80;52.90;;;;;;5007848;28;20237;-81
2023/01/01 10:51:00;;;;;;;51.55;33.20;;;21.60;55.20;;;;;;5000754;28;20265;-80
2023/01/01 10:53:28;;;;;;;54.17;33.35;;;21.70;55.70;;;;;;5003088;28;20173;-80
2023/01/01 10:56:09;;;;;;;55.08;32.35;;;22.00;55.60;;;;;;5007269;28;20196;-80
2023/01/01 10:58:40;;;;;;;49.63;31.17;;;22.10;53.50;;;;;;5002425;28;20181;-80
2023/01/01 11:01:12;;;;;;;50.25;31.50;;;22.30;55.70;;;;;;4985658;28;20216;-81
2023/01/01 11:03:53;;;;;;;54.85;31.77;;;22.70;54.80;;;;;;5002754;28;20193;-80
2023/01/01 11:06:21;;;;;;;51.17;31.55;;;22.90;54.10;;;;;;5004104;28;20189;-81
2023/01/01 11:08:58;;;;;;;54.00;32.58;;;23.10;53.50;;;;;;5001890;28;20693;-81
2023/01/01 11:11:28;;;;;;;51.55;31.63;;;23.20;54.30;;;;;;5009819;28;20820;-80
2023/01/01 11:13:58;;;;;;;53.75;33.00;;;23.40;54.30;;;;;;5004759;28;20284;-81
2023/01/01 11:16:25;;;;;;;48.25;32.30;;;23.60;51.90;;;;;;5005161;28;20586;-81
2023/01/01 11:18:58;;;;;;;52.92;31.73;;;23.70;53.20;;;;;;4992037;28;20182;-81
2023/01/01 11:21:24;;;;;;;43.80;30.42;;;23.80;52.30;;;;;;5003822;28;20209;-81
2023/01/01 11:24:08;;;;;;;46.08;31.38;;;23.90;51.90;;;;;;4997859;28;20196;-81
2023/01/01 11:26:33;;;;;;;46.25;29.80;;;24.00;53.10;;;;;;5003610;28;20186;-80
2023/01/01 11:29:00;;;;;;;46.08;29.80;;;24.10;52.20;;;;;;5014514;28;20296;-81
2023/01/01 11:31:37;;;;;;;50.03;31.15;;;24.20;50.90;;;;;;5008685;28;20219;-80
2023/01/01 11:34:21;;;;;;;44.70;28.35;;;24.30;50.10;;;;;;5009379;28;20677;-80
2023/01/01 11:36:47;;;;;;;50.22;29.63;;;24.50;50.30;;;;;;5006717;28;20276;-80
2023/01/01 11:39:19;;;;;;;47.13;29.95;;;24.60;51.80;;;;;;5018239;28;20267;-80
2023/01/01 11:41:50;;;;;;;45.80;29.45;;;24.60;51.40;;;;;;5011798;28;20304;-80
2023/01/01 11:44:45;;;;;;;46.38;29.48;;;24.50;50.90;;;;;;5014344;28;20204;-80
2023/01/01 11:47:29;;;;;;;42.65;27.55;;;24.60;51.90;;;;;;5009043;28;20180;-81
2023/01/01 11:50:10;;;;;;;43.58;27.95;;;24.60;50.80;;;;;;4992429;28;20186;-81
2023/01/01 11:52:39;;;;;;;42.45;26.38;;;24.70;51.60;;;;;;5009893;28;20207;-80
2023/01/01 11:55:45;;;;;;;39.20;26.02;;;24.60;50.80;;;;;;5004916;28;20186;-79
2023/01/01 11:58:18;;;;;;;40.03;25.60;;;24.70;49.80;;;;;;5018584;28;20181;-79
2023/01/01 12:00:46;;;;;;;34.35;23.98;;;24.80;52.00;;;;;;5010944;28;20208;-79
2023/01/01 12:03:28;;;;;;;40.00;25.52;;;24.90;50.30;;;;;;5015329;28;20177;-79
2023/01/01 12:06:07;;;;;;;35.42;25.27;;;25.00;52.50;;;;;;5005764;28;20181;-79
2023/01/01 12:08:41;;;;;;;39.65;25.40;;;25.10;50.70;;;;;;5011960;28;20189;-79
2023/01/01 12:11:25;;;;;;;36.97;24.33;;;25.00;52.20;;;;;;5006495;28;20177;-79
2023/01/01 12:14:11;;;;;;;39.10;24.55;;;24.90;50.80;;;;;;5005517;28;20196;-81
2023/01/01 12:16:49;;;;;;;36.75;23.80;;;24.80;50.00;;;;;;5014466;28;20203;-79
2023/01/01 12:19:23;;;;;;;36.72;24.38;;;24.80;49.40;;;;;;5016248;28;20187;-80
2023/01/01 12:21:53;;;;;;;32.90;23.70;;;24.80;50.90;;;;;;5016390;28;20265;-79
2023/01/01 12:24:19;;;;;;;37.60;22.33;;;24.80;50.50;;;;;;5010526;28;20221;-78
2023/01/01 12:27:04;;;;;;;30.90;22.13;;;24.80;49.70;;;;;;4990009;28;20186;-80
2023/01/01 12:29:38;;;;;;;30.25;20.42;;;24.80;50.60;;;;;;5014503;28;20173;-77
2023/01/01 12:32:17;;;;;;;33.13;20.20;;;24.90;49.70;;;;;;5002892;28;20679;-78
2023/01/01 12:35:20;;;;;;;33.75;21.45;;;24.70;49.90;;;;;;5005741;28;20188;-81
2023/01/01 12:37:51;;;;;;;30.05;20.13;;;24.60;49.30;;;;;;5003409;28;20184;-80
2023/01/01 12:40:37;;;;;;;32.53;20.05;;;24.50;49.60;;;;;;5002444;28;20197;-80
2023/01/01 12:43:15;;;;;;;33.55;20.10;;;24.40;49.30;;;;;;5007827;28;20263;-78
2023/01/01 12:45:47;;;;;;;25.48;19.85;;;24.40;49.60;;;;;;5005570;28;20188;-81
2023/01/01 12:48:15;;;;;;;34.03;20.95;;;24.20;49.80;;;;;;5006658;28;20193;-81
2023/01/01 12:51:00;;;;;;;29.15;20.05;;;24.20;50.00;;;;;;5006681;28;20696;-82
2023/01/01 12:53:32;;;;;;;31.38;20.63;;;24.00;50.00;;;;;;5008947;28;20273;-80
2023/01/01 12:56:29;;;;;;;31.08;20.50;;;23.90;50.00;;;;;;5007115;28;20823;-81
2023/01/01 12:59:01;;;;;;;31.58;20.40;;;23.80;50.00;;;;;;4908705;29;20200;-86